Time;durP1;ratioP1;P1;durP2;ratioP2;P2;SDS_P1;SDS_P2;PMS_P1;PMS_P2;Temp;Humidity;BMP_temperature;BMP_pressure;BME280_temperature;BME280_humidity;BME280_pressure;Samples;Min_cycle;Max_cycle;Signal;HPM_P1;HPM_P2
2022/02/14 00:00:48;;;;;;;;;;;;;;;16.16;41.99;101923.59;4979303;28;1153;-60
2022/02/14 00:03:14;;;;;;;;;;;;;;;16.25;41.92;101927.63;4979564;28;887;-60
2022/02/14 00:05:40;;;;;;;;;;;;;;;16.74;40.75;101924.47;4984609;28;913;-60
2022/02/14 00:08:05;;;;;;;;;;;;;;;17.00;40.06;101927.69;4979845;28;859;-62
2022/02/14 00:10:32;;;;;;;;;;;;;;;17.04;39.96;101928.84;4979892;28;802;-61
2022/02/14 00:12:58;;;;;;;;;;;;;;;16.77;40.58;101919.31;4982787;28;964;-62
2022/02/14 00:15:23;;;;;;;;;;;;;;;16.56;40.86;101917.25;4979423;28;1941;-62
2022/02/14 00:17:50;;;;;;;;;;;;;;;16.51;41.22;101922.63;4980311;28;890;-60
2022/02/14 00:20:15;;;;;;;;;;;;;;;16.21;41.46;101920.97;4979915;28;883;-59
2022/02/14 00:22:41;;;;;;;;;;;;;;;16.07;41.98;101915.75;4979982;28;802;-62
2022/02/14 00:25:06;;;;;;;;;;;;;;;15.95;42.03;101914.94;4978807;28;923;-62
2022/02/14 00:27:32;;;;;;;;;;;;;;;16.07;42.19;101912.16;4979927;28;925;-61
2022/02/14 00:29:58;;;;;;;;;;;;;;;16.25;41.83;101912.00;4983569;28;809;-60
2022/02/14 00:32:23;;;;;;;;;;;;;;;16.55;41.25;101912.84;4979095;28;1147;-60
2022/02/14 00:34:50;;;;;;;;;;;;;;;17.06;40.08;101897.28;4980023;28;927;-60
2022/02/14 00:37:16;;;;;;;;;;;;;;;17.31;39.38;101907.03;4979153;28;1971;-60
2022/02/14 00:39:41;;;;;;;;;;;;;;;17.23;39.60;101907.47;4979296;28;839;-59
2022/02/14 00:42:07;;;;;;;;;;;;;;;17.01;39.90;101891.72;4979754;28;889;-62
2022/02/14 00:44:32;;;;;;;;;;;;;;;16.43;41.18;101894.50;4984109;28;827;-62
2022/02/14 00:46:58;;;;;;;;;;;;;;;16.30;41.62;101894.81;4978892;28;849;-61
2022/02/14 00:49:23;;;;;;;;;;;;;;;16.14;41.77;101895.56;4979396;28;863;-61
2022/02/14 00:51:49;;;;;;;;;;;;;;;16.08;41.88;101898.22;4979202;28;835;-62
2022/02/14 00:54:14;;;;;;;;;;;;;;;16.01;42.13;101897.50;4978504;28;874;-61
2022/02/14 00:56:40;;;;;;;;;;;;;;;15.94;41.74;101888.59;4983218;28;1910;-61
2022/02/14 00:59:05;;;;;;;;;;;;;;;17.64;39.03;101894.31;4982284;28;893;-62
2022/02/14 01:01:30;;;;;;;;;;;;;;;17.20;39.44;101895.06;4978874;28;904;-61
2022/02/14 01:03:56;;;;;;;;;;;;;;;16.55;40.93;101890.88;4978858;28;967;-61
2022/02/14 01:06:25;;;;;;;;;;;;;;;16.21;41.32;101882.53;4978577;28;751;-61
2022/02/14 01:08:51;;;;;;;;;;;;;;;15.94;41.98;101880.34;4979213;28;838;-61
2022/02/14 01:11:16;;;;;;;;;;;;;;;16.20;42.00;101881.72;4978989;28;830;-61
2022/02/14 01:13:42;;;;;;;;;;;;;;;16.82;40.77;101877.38;4979940;28;893;-62
2022/02/14 01:16:07;;;;;;;;;;;;;;;17.28;39.42;101874.56;4978613;28;1965;-62
2022/02/14 01:18:33;;;;;;;;;;;;;;;17.50;38.98;101865.53;4979241;28;887;-61
2022/02/14 01:20:58;;;;;;;;;;;;;;;17.40;39.27;101869.81;4981875;28;1412;-61
2022/02/14 01:23:23;;;;;;;;;;;;;;;16.86;40.48;101856.56;4978218;28;847;-62
2022/02/14 01:25:49;;;;;;;;;;;;;;;16.52;40.84;101856.53;4978604;28;762;-62
2022/02/14 01:28:14;;;;;;;;;;;;;;;16.37;41.32;101854.31;4984215;28;991;-62
2022/02/14 01:30:40;;;;;;;;;;;;;;;16.25;41.97;101864.50;4978512;28;826;-63
2022/02/14 01:33:05;;;;;;;;;;;;;;;16.18;41.80;101864.66;4978074;28;1108;-62
2022/02/14 01:35:31;;;;;;;;;;;;;;;16.16;42.05;101857.72;4977963;28;1972;-61
2022/02/14 01:37:56;;;;;;;;;;;;;;;16.20;42.05;101859.75;4978631;28;814;-62
2022/02/14 01:40:22;;;;;;;;;;;;;;;16.19;41.88;101862.75;4978585;28;882;-61
2022/02/14 01:42:47;;;;;;;;;;;;;;;16.26;41.64;101846.97;4982918;28;896;-60
2022/02/14 01:45:13;;;;;;;;;;;;;;;16.43;41.48;101853.31;4978288;28;838;-61
2022/02/14 01:47:40;;;;;;;;;;;;;;;16.73;40.82;101851.38;4981099;28;940;-62
2022/02/14 01:50:06;;;;;;;;;;;;;;;16.88;40.41;101843.41;4978058;28;775;-61
2022/02/14 01:52:31;;;;;;;;;;;;;;;17.01;40.04;101844.16;4978349;28;927;-61
2022/02/14 01:54:57;;;;;;;;;;;;;;;16.81;40.79;101852.88;4977799;28;755;-64
2022/02/14 01:57:22;;;;;;;;;;;;;;;16.60;40.82;101842.38;4977487;28;1327;-63
2022/02/14 01:59:48;;;;;;;;;;;;;;;16.48;41.32;101833.38;4985906;28;755;-61
2022/02/14 02:02:13;;;;;;;;;;;;;;;16.04;41.93;101828.44;4987781;28;877;-60
2022/02/14 02:04:41;;;;;;;;;;;;;;;15.87;42.48;101828.38;4996758;28;864;-61
2022/02/14 02:07:06;;;;;;;;;;;;;;;15.96;42.59;101819.75;4996216;28;763;-61
2022/02/14 02:09:32;;;;;;;;;;;;;;;16.23;41.95;101826.34;4994913;28;985;-62
2022/02/14 02:14:41;;;;;;;;;;;;;;;17.21;39.89;101818.94;4978661;28;827;-62
2022/02/14 02:17:07;;;;;;;;;;;;;;;17.53;39.07;101826.50;4977186;28;1918;-62
2022/02/14 02:19:34;;;;;;;;;;;;;;;17.35;39.07;101825.72;4977944;28;925;-61
2022/02/14 02:21:59;;;;;;;;;;;;;;;16.97;40.29;101821.03;4978088;28;854;-62
2022/02/14 02:24:24;;;;;;;;;;;;;;;16.52;40.88;101825.47;4980295;28;859;-62
2022/02/14 02:26:57;;;;;;;;;;;;;;;16.18;41.75;101825.41;4984228;28;716;-61
2022/02/14 02:29:22;;;;;;;;;;;;;;;16.10;41.64;101821.13;4990384;28;929;-61
2022/02/14 02:31:48;;;;;;;;;;;;;;;15.87;42.05;101816.56;4983896;28;1268;-62
2022/02/14 02:34:13;;;;;;;;;;;;;;;17.07;40.29;101822.03;4984183;28;839;-60
2022/02/14 02:37:11;;;;;;;;;;;;;;;16.90;40.45;101818.44;4984205;28;1917;-62
2022/02/14 02:39:36;;;;;;;;;;;;;;;16.43;41.46;101814.06;4972036;28;1384;-61
2022/02/14 02:42:04;;;;;;;;;;;;;;;16.11;41.91;101811.84;4984666;28;844;-62
2022/02/14 02:44:30;;;;;;;;;;;;;;;16.07;42.67;101817.00;4987345;28;870;-61
2022/02/14 02:46:55;;;;;;;;;;;;;;;17.13;39.81;101811.13;4984272;28;795;-61
2022/02/14 02:49:22;;;;;;;;;;;;;;;16.69;40.86;101812.59;4984527;28;766;-61
2022/02/14 02:51:51;;;;;;;;;;;;;;;16.32;41.72;101818.53;4989680;28;901;-61
2022/02/14 02:54:17;;;;;;;;;;;;;;;16.06;41.35;101808.97;4983587;28;826;-61
2022/02/14 02:56:43;;;;;;;;;;;;;;;16.24;42.50;101806.06;4983402;28;1910;-61
2022/02/14 02:59:08;;;;;;;;;;;;;;;16.45;41.58;101811.06;4985876;28;1015;-61
2022/02/14 03:01:34;;;;;;;;;;;;;;;16.14;42.01;101816.81;4983996;28;797;-62
2022/02/14 03:04:03;;;;;;;;;;;;;;;16.00;42.50;101801.75;4986680;28;818;-61
2022/02/14 03:06:28;;;;;;;;;;;;;;;16.07;42.33;101810.66;4996249;28;823;-61
2022/02/14 03:08:54;;;;;;;;;;;;;;;16.23;42.02;101811.78;5002548;28;833;-62
2022/02/14 03:11:19;;;;;;;;;;;;;;;16.65;40.99;101816.94;5002731;28;873;-60
2022/02/14 03:13:45;;;;;;;;;;;;;;;17.07;40.09;101808.28;4997252;28;925;-61
2022/02/14 03:16:11;;;;;;;;;;;;;;;17.20;39.87;101806.28;4989696;28;1910;-63
2022/02/14 03:18:37;;;;;;;;;;;;;;;17.19;39.64;101812.84;4983502;28;811;-64
2022/02/14 03:21:02;;;;;;;;;;;;;;;16.72;40.75;101809.34;4983622;28;904;-62
2022/02/14 03:23:27;;;;;;;;;;;;;;;16.50;41.29;101805.69;4983665;28;776;-62
2022/02/14 03:25:53;;;;;;;;;;;;;;;16.21;41.76;101813.94;4983430;28;800;-62
2022/02/14 03:28:18;;;;;;;;;;;;;;;16.30;41.74;101815.22;4987818;28;842;-61
2022/02/14 03:30:44;;;;;;;;;;;;;;;16.22;41.94;101807.38;4983726;28;828;-62
2022/02/14 03:33:09;;;;;;;;;;;;;;;16.40;41.34;101815.38;4983650;28;1151;-61
2022/02/14 03:35:35;;;;;;;;;;;;;;;16.45;41.42;101816.56;4983006;28;1906;-62
2022/02/14 03:38:03;;;;;;;;;;;;;;;16.77;40.85;101814.09;4980538;28;795;-63
2022/02/14 03:40:29;;;;;;;;;;;;;;;16.82;40.85;101810.63;4982355;28;798;-63
2022/02/14 03:42:56;;;;;;;;;;;;;;;16.77;40.64;101803.94;4986803;28;854;-63
2022/02/14 03:45:22;;;;;;;;;;;;;;;16.35;41.54;101806.22;4980490;28;782;-63
2022/02/14 03:47:47;;;;;;;;;;;;;;;16.21;41.93;101805.69;4980380;28;786;-61
2022/02/14 03:50:12;;;;;;;;;;;;;;;16.02;42.43;101807.81;4980774;28;1015;-62
2022/02/14 03:52:38;;;;;;;;;;;;;;;15.94;42.64;101805.47;4980265;28;760;-62
2022/02/14 03:55:03;;;;;;;;;;;;;;;16.07;42.07;101803.28;4982323;28;1902;-62
2022/02/14 03:57:29;;;;;;;;;;;;;;;16.07;42.11;101806.00;4981136;28;911;-62
2022/02/14 03:59:54;;;;;;;;;;;;;;;16.27;41.83;101804.72;4979890;28;874;-62
2022/02/14 04:02:20;;;;;;;;;;;;;;;16.37;41.59;101806.84;4980063;28;822;-62
2022/02/14 04:04:45;;;;;;;;;;;;;;;16.49;41.33;101801.25;4980421;28;765;-62
2022/02/14 04:07:10;;;;;;;;;;;;;;;16.65;41.09;101805.94;4984486;28;847;-62
2022/02/14 04:09:36;;;;;;;;;;;;;;;16.98;40.14;101798.78;4980388;28;843;-60
2022/02/14 04:12:01;;;;;;;;;;;;;;;16.83;40.31;101806.75;4980159;28;822;-63
2022/02/14 04:14:27;;;;;;;;;;;;;;;16.63;41.01;101801.78;4985221;28;795;-62
2022/02/14 04:16:52;;;;;;;;;;;;;;;16.48;41.03;101805.09;4985036;28;1906;-60
2022/02/14 04:19:18;;;;;;;;;;;;;;;16.20;41.66;101798.53;4993422;28;1294;-64
2022/02/14 04:21:43;;;;;;;;;;;;;;;16.11;42.17;101800.03;4996247;28;918;-61
2022/02/14 04:24:08;;;;;;;;;;;;;;;16.11;42.09;101802.78;4998676;28;937;-61
2022/02/14 04:26:34;;;;;;;;;;;;;;;16.31;41.79;101794.91;4998385;28;803;-62
2022/02/14 04:29:00;;;;;;;;;;;;;;;16.29;41.96;101790.75;4988086;28;908;-62
2022/02/14 04:31:25;;;;;;;;;;;;;;;16.43;41.39;101787.44;4988801;28;1081;-62
2022/02/14 04:33:50;;;;;;;;;;;;;;;16.70;41.07;101791.44;4966165;28;787;-63
2022/02/14 04:36:16;;;;;;;;;;;;;;;16.94;40.34;101783.88;4960095;28;1977;-62
2022/02/14 04:38:41;;;;;;;;;;;;;;;17.07;40.21;101790.97;4959994;28;894;-62
2022/02/14 04:41:07;;;;;;;;;;;;;;;17.11;39.96;101792.13;4960286;28;823;-60
2022/02/14 04:43:32;;;;;;;;;;;;;;;16.80;40.55;101794.34;4962230;28;1393;-60
2022/02/14 04:45:58;;;;;;;;;;;;;;;16.39;41.59;101797.25;4964339;28;883;-60
2022/02/14 04:48:23;;;;;;;;;;;;;;;16.11;41.87;101794.53;4959399;28;906;-57
2022/02/14 04:50:48;;;;;;;;;;;;;;;16.20;41.90;101801.28;4960279;28;774;-59
2022/02/14 04:53:14;;;;;;;;;;;;;;;16.33;41.67;101805.66;4960226;28;839;-60
2022/02/14 04:55:39;;;;;;;;;;;;;;;16.44;41.48;101804.75;4959495;28;1910;-58
2022/02/14 04:58:05;;;;;;;;;;;;;;;16.67;40.91;101797.44;4970941;28;1679;-59
2022/02/14 05:00:31;;;;;;;;;;;;;;;17.04;40.16;101802.44;4964955;28;874;-58
2022/02/14 05:02:59;;;;;;;;;;;;;;;17.05;40.09;101799.44;4970056;28;848;-57
2022/02/14 05:05:25;;;;;;;;;;;;;;;16.97;40.05;101813.63;4959488;28;814;-58
2022/02/14 05:07:50;;;;;;;;;;;;;;;16.38;41.50;101808.47;4959441;28;775;-58
2022/02/14 05:10:16;;;;;;;;;;;;;;;16.21;41.76;101811.19;4960833;28;791;-57
2022/02/14 05:12:41;;;;;;;;;;;;;;;16.04;42.00;101811.97;4963817;28;835;-58
2022/02/14 05:15:07;;;;;;;;;;;;;;;16.01;42.09;101806.16;4959959;28;1977;-57
2022/02/14 05:17:33;;;;;;;;;;;;;;;16.03;42.26;101812.22;4959632;28;836;-58
2022/02/14 05:19:59;;;;;;;;;;;;;;;16.23;42.07;101809.06;4962307;28;1146;-58
2022/02/14 05:22:24;;;;;;;;;;;;;;;16.71;40.95;101817.84;4963974;28;996;-58
2022/02/14 05:24:49;;;;;;;;;;;;;;;17.13;40.01;101814.69;4961427;28;791;-58
2022/02/14 05:27:16;;;;;;;;;;;;;;;17.48;39.10;101819.03;4960169;28;823;-58
2022/02/14 05:29:42;;;;;;;;;;;;;;;17.36;39.36;101824.66;4961345;28;1024;-58
2022/02/14 05:32:07;;;;;;;;;;;;;;;17.02;39.79;101821.94;4965261;28;1034;-59
2022/02/14 05:34:33;;;;;;;;;;;;;;;16.45;41.14;101827.53;4978221;28;831;-58
2022/02/14 05:36:58;;;;;;;;;;;;;;;16.25;41.64;101829.66;4979698;28;1976;-59
2022/02/14 05:39:23;;;;;;;;;;;;;;;16.22;41.64;101837.56;4978183;28;835;-59
2022/02/14 05:41:49;;;;;;;;;;;;;;;16.11;42.10;101832.97;4978574;28;731;-60
2022/02/14 05:44:14;;;;;;;;;;;;;;;16.14;41.93;101832.47;4979152;28;1047;-57
2022/02/14 05:46:40;;;;;;;;;;;;;;;16.31;41.68;101836.06;4979345;28;1114;-59
2022/02/14 05:49:05;;;;;;;;;;;;;;;16.55;41.33;101835.94;4982327;28;1302;-58
2022/02/14 05:51:31;;;;;;;;;;;;;;;16.85;40.75;101834.84;4986863;28;1223;-58
2022/02/14 05:53:56;;;;;;;;;;;;;;;17.10;40.00;101835.25;4984710;28;1132;-58
2022/02/14 05:56:21;;;;;;;;;;;;;;;17.16;39.67;101838.09;4992512;28;1983;-58
2022/02/14 05:58:47;;;;;;;;;;;;;;;16.80;40.56;101842.97;4986653;28;974;-58
2022/02/14 06:01:12;;;;;;;;;;;;;;;16.66;41.06;101846.06;4982054;28;1196;-58
2022/02/14 06:03:38;;;;;;;;;;;;;;;16.47;41.06;101842.69;4980366;28;1203;-59
2022/02/14 06:06:03;;;;;;;;;;;;;;;16.18;41.92;101836.38;4978999;28;1061;-57
2022/02/14 06:08:29;;;;;;;;;;;;;;;16.34;41.37;101835.59;4981584;28;1121;-58
2022/02/14 06:10:54;;;;;;;;;;;;;;;16.34;41.63;101841.09;4979724;28;1086;-58
2022/02/14 06:13:20;;;;;;;;;;;;;;;16.36;41.28;101847.16;4982156;28;1272;-58
2022/02/14 06:15:45;;;;;;;;;;;;;;;16.47;41.25;101847.38;4983108;28;1895;-57
2022/02/14 06:18:11;;;;;;;;;;;;;;;16.64;40.81;101848.22;4996713;28;902;-57
2022/02/14 06:20:37;;;;;;;;;;;;;;;16.84;40.54;101849.63;4996557;28;874;-59
2022/02/14 06:23:02;;;;;;;;;;;;;;;16.81;40.31;101841.91;4996548;28;863;-59
2022/02/14 06:25:28;;;;;;;;;;;;;;;16.69;40.78;101853.78;4983785;28;1030;-58
2022/02/14 06:27:53;;;;;;;;;;;;;;;16.37;41.32;101846.09;4980096;28;866;-59
2022/02/14 06:30:19;;;;;;;;;;;;;;;16.35;41.40;101850.97;4977613;28;926;-58
2022/02/14 06:32:45;;;;;;;;;;;;;;;16.30;41.45;101850.91;4977728;28;1113;-59
2022/02/14 06:35:10;;;;;;;;;;;;;;;16.22;42.03;101854.03;4986495;28;1902;-59
2022/02/14 06:37:36;;;;;;;;;;;;;;;16.38;41.56;101857.88;4995875;28;1196;-59
2022/02/14 06:40:05;;;;;;;;;;;;;;;16.50;41.32;101853.19;4983940;28;1069;-58
2022/02/14 06:42:31;;;;;;;;;;;;;;;16.66;40.68;101850.69;4977132;28;1014;-58
2022/02/14 06:44:56;;;;;;;;;;;;;;;16.99;40.26;101854.59;4983761;28;1283;-61
2022/02/14 06:47:22;;;;;;;;;;;;;;;17.16;40.13;101857.34;4985148;28;1282;-66
2022/02/14 06:49:47;;;;;;;;;;;;;;;17.03;40.52;101851.09;4978516;28;1365;-61
2022/02/14 06:52:13;;;;;;;;;;;;;;;16.45;41.49;101844.84;4985320;28;1562;-65
2022/02/14 06:54:38;;;;;;;;;;;;;;;16.74;41.33;101847.56;4979320;28;1420;-63
2022/02/14 06:57:04;;;;;;;;;;;;;;;16.33;41.12;101847.66;4986593;28;1906;-64
2022/02/14 06:59:29;;;;;;;;;;;;;;;16.04;41.58;101850.38;4989937;28;1001;-66
2022/02/14 07:01:55;;;;;;;;;;;;;;;16.39;43.09;101846.66;4976608;28;723;-63
2022/02/14 07:04:20;;;;;;;;;;;;;;;17.09;41.25;101854.75;4986098;28;1212;-65
2022/02/14 07:06:46;;;;;;;;;;;;;;;17.45;40.46;101852.53;4982170;28;1377;-66
2022/02/14 07:09:12;;;;;;;;;;;;;;;17.50;40.25;101849.03;4980178;28;1286;-65
2022/02/14 07:11:43;;;;;;;;;;;;;;;17.09;40.79;101847.31;4990608;28;874;-62
2022/02/14 07:14:10;;;;;;;;;;;;;;;16.82;41.31;101843.56;4986984;28;917;-63
2022/02/14 07:16:36;;;;;;;;;;;;;;;16.57;41.79;101836.56;4981937;28;1983;-64
2022/02/14 07:19:01;;;;;;;;;;;;;;;16.43;42.01;101836.84;4985961;28;1320;-63
2022/02/14 07:21:27;;;;;;;;;;;;;;;16.08;41.67;101832.34;4986808;28;1563;-59
2022/02/14 07:23:52;;;;;;;;;;;;;;;16.60;42.08;101838.78;4985605;28;1171;-59
2022/02/14 07:26:18;;;;;;;;;;;;;;;16.40;42.14;101834.59;4988141;28;1503;-63
2022/02/14 07:28:44;;;;;;;;;;;;;;;16.43;42.16;101839.59;4990078;28;1252;-62
2022/02/14 07:31:10;;;;;;;;;;;;;;;16.22;42.73;101845.78;4996789;28;1384;-61
2022/02/14 07:33:35;;;;;;;;;;;;;;;16.40;42.39;101840.09;4992697;28;1146;-62
2022/02/14 07:36:01;;;;;;;;;;;;;;;19.30;37.76;101845.41;4995881;28;1907;-70
2022/02/14 07:38:26;;;;;;;;;;;;;;;20.18;36.00;101841.13;4980640;28;1503;-68
2022/02/14 07:40:52;;;;;;;;;;;;;;;20.55;35.60;101840.06;4985383;28;1459;-69
2022/02/14 07:43:17;;;;;;;;;;;;;;;20.76;35.38;101835.44;4989375;28;1245;-67
2022/02/14 07:45:43;;;;;;;;;;;;;;;21.02;35.29;101832.66;4988617;28;1309;-67
2022/02/14 07:48:08;;;;;;;;;;;;;;;21.11;35.42;101836.53;4987005;28;1263;-67
2022/02/14 07:50:36;;;;;;;;;;;;;;;21.35;35.10;101830.41;4982337;28;1507;-68
2022/02/14 07:53:02;;;;;;;;;;;;;;;21.45;35.17;101830.38;4986154;28;1283;-69
2022/02/14 07:55:27;;;;;;;;;;;;;;;21.62;35.28;101835.59;4984776;28;1914;-67
2022/02/14 07:57:53;;;;;;;;;;;;;;;21.76;34.97;101844.13;4990368;28;1286;-68
2022/02/14 08:00:18;;;;;;;;;;;;;;;21.93;34.97;101840.19;4980876;28;1455;-68
2022/02/14 08:02:44;;;;;;;;;;;;;;;21.83;35.33;101830.81;4993670;28;1206;-66
2022/02/14 08:05:11;;;;;;;;;;;;;;;20.38;38.40;101832.06;4983952;28;1578;-70
2022/02/14 08:07:36;;;;;;;;;;;;;;;19.90;39.23;101834.16;4979501;28;783;-68
2022/02/14 08:10:02;;;;;;;;;;;;;;;20.37;39.01;101833.19;4996729;28;810;-69
2022/02/14 08:12:29;;;;;;;;;;;;;;;21.29;37.21;101831.50;4987191;28;1487;-66
2022/02/14 08:14:55;;;;;;;;;;;;;;;21.63;36.25;101828.09;4998191;28;1218;-65
2022/02/14 08:17:20;;;;;;;;;;;;;;;21.69;36.19;101830.56;4985011;28;1910;-68
2022/02/14 08:19:46;;;;;;;;;;;;;;;21.74;36.63;101826.97;4995164;28;1225;-67
2022/02/14 08:22:11;;;;;;;;;;;;;;;21.81;36.78;101830.28;4990068;28;1681;-68
2022/02/14 08:24:37;;;;;;;;;;;;;;;22.01;36.51;101825.75;4997620;28;1360;-71
2022/02/14 08:27:03;;;;;;;;;;;;;;;22.12;36.51;101824.56;5002039;28;1444;-68
2022/02/14 08:29:29;;;;;;;;;;;;;;;22.15;36.82;101815.69;4995947;28;1388;-68
2022/02/14 08:31:55;;;;;;;;;;;;;;;21.05;39.21;101811.91;4985199;28;1274;-69
2022/02/14 08:34:20;;;;;;;;;;;;;;;20.75;40.02;101813.59;4985100;28;1299;-69
2022/02/14 08:36:46;;;;;;;;;;;;;;;19.95;42.29;101814.81;4985173;28;1910;-69
2022/02/14 08:39:13;;;;;;;;;;;;;;;21.24;39.32;101813.00;4987795;28;1381;-69
2022/02/14 08:41:38;;;;;;;;;;;;;;;21.71;38.61;101819.22;4992187;28;1578;-68
2022/02/14 08:44:05;;;;;;;;;;;;;;;21.81;38.30;101819.19;4983739;28;1009;-68
2022/02/14 08:46:30;;;;;;;;;;;;;;;22.03;38.15;101818.81;4981925;28;926;-68
2022/02/14 08:48:55;;;;;;;;;;;;;;;22.19;37.45;101814.00;4981884;28;1381;-69
2022/02/14 08:51:21;;;;;;;;;;;;;;;22.29;37.31;101815.06;4994480;28;1567;-68
2022/02/14 08:53:47;;;;;;;;;;;;;;;21.08;39.92;101814.13;4988613;28;1546;-68
2022/02/14 08:56:12;;;;;;;;;;;;;;;21.16;39.40;101811.59;4991143;28;1902;-68
2022/02/14 08:58:42;;;;;;;;;;;;;;;19.42;43.71;101821.22;4982701;28;925;-68
2022/02/14 09:01:07;;;;;;;;;;;;;;;21.52;39.01;101808.78;4997415;28;1665;-68
2022/02/14 09:03:33;;;;;;;;;;;;;;;21.87;38.20;101809.75;4985269;28;1313;-68
2022/02/14 09:05:58;;;;;;;;;;;;;;;22.10;37.50;101814.88;4982934;28;1343;-69
2022/02/14 09:08:25;;;;;;;;;;;;;;;22.20;37.32;101807.34;4983712;28;1722;-68
2022/02/14 09:10:51;;;;;;;;;;;;;;;22.31;36.69;101810.03;4992637;28;1269;-70
2022/02/14 09:13:16;;;;;;;;;;;;;;;21.24;37.91;101801.94;4993334;28;1383;-71
2022/02/14 09:15:42;;;;;;;;;;;;;;;20.92;38.24;101799.50;4982337;28;1906;-70
2022/02/14 09:18:07;;;;;;;;;;;;;;;19.91;40.33;101800.75;4983747;28;1523;-67
2022/02/14 09:20:32;;;;;;;;;;;;;;;21.10;37.76;101807.22;4983919;28;1388;-68
2022/02/14 09:23:00;;;;;;;;;;;;;;;21.51;36.92;101800.72;4982382;28;1341;-67
2022/02/14 09:25:25;;;;;;;;;;;;;;;21.81;36.26;101802.59;4983142;28;1238;-69
2022/02/14 09:27:51;;;;;;;;;;;;;;;21.91;36.06;101792.53;4985207;28;1345;-66
2022/02/14 09:30:17;;;;;;;;;;;;;;;22.00;35.79;101801.91;4985936;28;1209;-69
2022/02/14 09:32:42;;;;;;;;;;;;;;;22.19;35.16;101789.06;4982901;28;1420;-69
2022/02/14 09:35:08;;;;;;;;;;;;;;;22.27;35.16;101793.16;4988474;28;1500;-69
2022/02/14 09:37:33;;;;;;;;;;;;;;;20.85;38.06;101795.06;4994327;28;1984;-68
2022/02/14 09:39:59;;;;;;;;;;;;;;;20.60;38.48;101792.28;4995917;28;1253;-68
2022/02/14 09:42:24;;;;;;;;;;;;;;;20.85;37.96;101794.25;4981021;28;1178;-69
2022/02/14 09:44:52;;;;;;;;;;;;;;;21.52;36.66;101794.94;4986777;28;1350;-68
2022/02/14 09:47:17;;;;;;;;;;;;;;;21.72;36.27;101786.84;4988345;28;1257;-68
2022/02/14 09:49:43;;;;;;;;;;;;;;;21.85;35.89;101794.50;4995772;28;1468;-69
2022/02/14 09:52:09;;;;;;;;;;;;;;;22.11;35.29;101791.63;4995708;28;1259;-69
2022/02/14 09:54:34;;;;;;;;;;;;;;;22.21;34.93;101786.00;4997407;28;1349;-69
2022/02/14 09:57:00;;;;;;;;;;;;;;;20.98;37.27;101776.25;4983861;28;1902;-69
2022/02/14 09:59:25;;;;;;;;;;;;;;;20.79;37.81;101781.53;4989414;28;1028;-69
2022/02/14 10:01:52;;;;;;;;;;;;;;;19.77;40.01;101775.56;4982860;28;1256;-69
2022/02/14 10:04:18;;;;;;;;;;;;;;;21.18;37.17;101770.69;4983716;28;998;-68
2022/02/14 10:06:44;;;;;;;;;;;;;;;21.72;35.91;101773.00;4983802;28;1527;-69
2022/02/14 10:09:09;;;;;;;;;;;;;;;21.86;35.41;101769.31;4980129;28;1320;-68
2022/02/14 10:11:42;;;;;;;;;;;;;;;21.91;35.31;101762.94;4986333;28;1531;-69
2022/02/14 10:14:17;;;;;;;;;;;;;;;22.05;35.12;101765.91;4988242;28;1329;-69
2022/02/14 10:17:01;;;;;;;;;;;;;;;22.22;34.77;101755.25;4983250;28;1979;-69
2022/02/14 10:19:27;;;;;;;;;;;;;;;20.82;37.43;101748.63;4995451;28;795;-68
2022/02/14 10:21:54;;;;;;;;;;;;;;;20.70;37.64;101747.28;4977853;28;1483;-67
2022/02/14 10:24:19;;;;;;;;;;;;;;;19.98;39.33;101742.53;4980306;28;1221;-68
2022/02/14 10:26:46;;;;;;;;;;;;;;;21.36;36.45;101737.97;4984483;28;1197;-66
2022/02/14 10:29:16;;;;;;;;;;;;;;;21.69;35.67;101735.66;4980618;28;1468;-64
2022/02/14 10:31:42;;;;;;;;;;;;;;;21.93;35.11;101734.94;4984405;28;1236;-64
2022/02/14 10:34:08;;;;;;;;;;;;;;;22.05;34.90;101732.66;4986679;28;1681;-67
2022/02/14 10:36:34;;;;;;;;;;;;;;;22.13;34.71;101729.28;4983423;28;1918;-64
2022/02/14 10:39:13;;;;;;;;;;;;;;;22.17;34.66;101719.25;4985185;28;1309;-70
2022/02/14 10:41:39;;;;;;;;;;;;;;;20.95;37.56;101716.00;4984580;28;1562;-67
2022/02/14 10:44:06;;;;;;;;;;;;;;;20.59;38.59;101718.78;4989008;28;989;-67
2022/02/14 10:46:32;;;;;;;;;;;;;;;20.16;39.81;101710.78;4986297;28;1226;-69
2022/02/14 10:48:58;;;;;;;;;;;;;;;21.76;36.74;101705.72;4995116;28;1305;-74
2022/02/14 10:51:23;;;;;;;;;;;;;;;22.10;36.39;101710.44;4987403;28;1227;-72
2022/02/14 10:53:49;;;;;;;;;;;;;;;22.21;35.99;101700.94;4987975;28;1393;-72
2022/02/14 10:56:15;;;;;;;;;;;;;;;21.03;38.62;101696.06;4995517;28;1987;-73
2022/02/14 10:58:41;;;;;;;;;;;;;;;20.86;39.16;101699.16;4986737;28;1291;-63
2022/02/14 11:01:10;;;;;;;;;;;;;;;19.70;41.24;101674.81;4988782;28;1417;-67
2022/02/14 11:03:37;;;;;;;;;;;;;;;19.19;42.32;101679.06;4995877;28;1369;-64
2022/02/14 11:06:03;;;;;;;;;;;;;;;18.83;42.75;101678.03;4981875;28;1159;-65
2022/02/14 11:08:28;;;;;;;;;;;;;;;18.15;40.45;101673.16;4987231;28;1330;-66
2022/02/14 11:10:54;;;;;;;;;;;;;;;17.86;38.77;101676.16;4993845;28;1291;-70
2022/02/14 11:13:23;;;;;;;;;;;;;;;18.16;45.98;101680.31;4988143;28;1190;-70
2022/02/14 11:15:49;;;;;;;;;;;;;;;19.84;41.84;101675.97;4989291;28;1921;-67
2022/02/14 11:18:18;;;;;;;;;;;;;;;20.78;39.60;101678.44;4983685;28;1526;-70
2022/02/14 11:20:44;;;;;;;;;;;;;;;21.22;38.46;101681.59;4985592;28;1159;-69
2022/02/14 11:23:10;;;;;;;;;;;;;;;21.44;37.92;101673.75;4985027;28;1293;-64
2022/02/14 11:25:43;;;;;;;;;;;;;;;21.65;37.25;101674.47;4982831;28;1668;-67
2022/02/14 11:28:12;;;;;;;;;;;;;;;21.78;37.08;101678.53;4984424;28;1166;-66
2022/02/14 11:30:37;;;;;;;;;;;;;;;21.92;36.61;101675.97;4989950;28;1424;-68
2022/02/14 11:33:03;;;;;;;;;;;;;;;22.05;36.36;101660.66;4985665;28;1384;-67
2022/02/14 11:35:28;;;;;;;;;;;;;;;22.13;36.03;101661.97;4990895;28;1907;-69
2022/02/14 11:37:54;;;;;;;;;;;;;;;21.11;37.72;101661.47;4985366;28;1260;-67
2022/02/14 11:40:27;;;;;;;;;;;;;;;20.59;39.22;101660.75;4990355;28;1559;-66
2022/02/14 11:43:11;;;;;;;;;;;;;;;19.77;41.17;101659.66;4991235;28;1252;-66
2022/02/14 11:45:38;;;;;;;;;;;;;;;21.34;38.55;101663.56;4992997;28;1571;-66
2022/02/14 11:48:22;;;;;;;;;;;;;;;21.88;37.36;101661.88;4995551;28;1111;-66
2022/02/14 11:50:47;;;;;;;;;;;;;;;22.07;37.31;101660.34;4989684;28;1214;-66
2022/02/14 11:53:33;;;;;;;;;;;;;;;22.14;37.58;101653.34;4988733;28;1551;-67
2022/02/14 11:55:58;;;;;;;;;;;;;;;;;;4996686;28;1914;-67
2022/02/14 11:58:42;;;;;;;;;;;;;;;21.15;40.01;101663.41;4987885;28;1292;-67
2022/02/14 12:01:09;;;;;;;;;;;;;;;19.45;43.55;101657.94;4983226;28;854;-68
2022/02/14 12:03:34;;;;;;;;;;;;;;;21.02;40.72;101667.56;4987185;28;1430;-66
2022/02/14 12:06:01;;;;;;;;;;;;;;;21.62;39.45;101660.41;4991537;28;1390;-67
2022/02/14 12:08:26;;;;;;;;;;;;;;;21.92;38.86;101664.06;4993412;28;1100;-67
2022/02/14 12:10:55;;;;;;;;;;;;;;;22.21;38.33;101664.91;4991727;28;1321;-67
2022/02/14 12:13:21;;;;;;;;;;;;;;;21.27;39.93;101657.50;4989315;28;1265;-67
2022/02/14 12:21:07;;;;;;;;;;;;;;;19.31;45.21;101656.78;4994432;28;910;-65
2022/02/14 12:23:32;;;;;;;;;;;;;;;21.12;40.80;101655.63;4984176;28;1373;-65
2022/02/14 12:25:58;;;;;;;;;;;;;;;21.67;39.55;101660.34;4995337;28;1288;-66
2022/02/14 12:28:24;;;;;;;;;;;;;;;21.97;39.08;101658.50;4988583;28;1369;-67
2022/02/14 12:30:50;;;;;;;;;;;;;;;21.59;39.77;101652.66;4983222;28;1139;-67
2022/02/14 12:33:16;;;;;;;;;;;;;;;20.61;42.14;101662.13;4989958;28;1420;-64
2022/02/14 12:35:48;;;;;;;;;;;;;;;20.39;42.56;101648.63;4992843;28;1910;-65
2022/02/14 12:38:14;;;;;;;;;;;;;;;20.21;43.80;101657.50;4991172;28;1411;-65
2022/02/14 12:40:43;;;;;;;;;;;;;;;21.30;41.09;101661.66;4978408;28;1207;-64
2022/02/14 12:43:09;;;;;;;;;;;;;;;21.62;40.36;101652.09;4983838;28;1163;-64
2022/02/14 12:45:35;;;;;;;;;;;;;;;21.83;39.86;101652.78;4985259;28;1293;-65
2022/02/14 12:48:00;;;;;;;;;;;;;;;20.67;42.81;101654.66;4987286;28;1088;-65
2022/02/14 12:50:26;;;;;;;;;;;;;;;20.56;43.13;101647.50;4997370;28;1307;-68
2022/02/14 12:52:52;;;;;;;;;;;;;;;19.13;46.17;101650.66;4994613;28;1284;-66